Terminal Aerodrome Forecast
Issued by NWS State College, PA

Home | Current Version | Previous Version | Text Only | Print | Product List | Glossary On
Versions: 1 2 3 4 5 6 7 8 9 10 11 12 13 14 15 16 17 18 19 20 21 22 23 24 25 26 27 28 29 30 31 32 33 34 35 36 37 38 39 40 41 42 43 44 45 46 47 48 49 50
000
FTUS41 KCTP 291123
TAFIPT
TAF
KIPT 291123Z 2912/3012 07009KT P6SM -SHRA OVC010
      TEMPO 2912/2914 2SM RA BR OVC009
     FM291400 12008KT P6SM BKN015 OVC025
     FM291700 26008G16KT P6SM BKN035
     FM292300 25007KT P6SM SCT030=

USA.gov is the U.S. government's official web portal to all federal, state and local government web resources and services.